sensor_id;sensor_type;location;lat;lon;timestamp;P1;durP1;ratioP1;P2;durP2;ratioP2
53714;SDS011;39608;55.630;37.864;2023-08-21T00:02:15;2.42;;;2.22;;
53714;SDS011;39608;55.630;37.864;2023-08-21T00:07:17;2.70;;;2.50;;
53714;SDS011;39608;55.630;37.864;2023-08-21T00:12:19;3.42;;;3.13;;
53714;SDS011;39608;55.630;37.864;2023-08-21T00:17:23;3.40;;;2.70;;
53714;SDS011;39608;55.630;37.864;2023-08-21T00:22:25;3.10;;;2.80;;
53714;SDS011;39608;55.630;37.864;2023-08-21T00:27:29;3.88;;;2.63;;
53714;SDS011;39608;55.630;37.864;2023-08-21T00:32:33;2.80;;;2.60;;
53714;SDS011;39608;55.630;37.864;2023-08-21T00:37:35;3.10;;;2.70;;
53714;SDS011;39608;55.630;37.864;2023-08-21T00:42:37;3.05;;;2.75;;
53714;SDS011;39608;55.630;37.864;2023-08-21T00:47:44;3.15;;;2.85;;
53714;SDS011;39608;55.630;37.864;2023-08-21T00:52:46;3.58;;;2.72;;
53714;SDS011;39608;55.630;37.864;2023-08-21T00:57:49;3.38;;;2.72;;
53714;SDS011;39608;55.630;37.864;2023-08-21T01:02:53;2.72;;;2.53;;
53714;SDS011;39608;55.630;37.864;2023-08-21T01:07:56;4.47;;;3.13;;
53714;SDS011;39608;55.630;37.864;2023-08-21T01:13:04;4.10;;;3.00;;
53714;SDS011;39608;55.630;37.864;2023-08-21T01:18:14;3.30;;;2.88;;
53714;SDS011;39608;55.630;37.864;2023-08-21T01:23:29;4.20;;;3.27;;
53714;SDS011;39608;55.630;37.864;2023-08-21T01:28:32;3.03;;;2.63;;
53714;SDS011;39608;55.630;37.864;2023-08-21T01:33:37;3.50;;;2.70;;
53714;SDS011;39608;55.630;37.864;2023-08-21T01:38:47;2.63;;;2.40;;
53714;SDS011;39608;55.630;37.864;2023-08-21T01:43:50;4.10;;;2.72;;
53714;SDS011;39608;55.630;37.864;2023-08-21T01:48:52;6.40;;;2.75;;
53714;SDS011;39608;55.630;37.864;2023-08-21T01:53:58;3.25;;;2.65;;
53714;SDS011;39608;55.630;37.864;2023-08-21T01:59:01;2.90;;;2.70;;
53714;SDS011;39608;55.630;37.864;2023-08-21T02:04:03;2.80;;;2.42;;
53714;SDS011;39608;55.630;37.864;2023-08-21T02:09:09;4.13;;;2.60;;
53714;SDS011;39608;55.630;37.864;2023-08-21T02:14:11;3.73;;;2.40;;
53714;SDS011;39608;55.630;37.864;2023-08-21T02:19:13;6.18;;;2.60;;
53714;SDS011;39608;55.630;37.864;2023-08-21T02:24:17;7.28;;;2.67;;
53714;SDS011;39608;55.630;37.864;2023-08-21T02:29:22;3.05;;;2.75;;
53714;SDS011;39608;55.630;37.864;2023-08-21T02:34:24;4.70;;;2.10;;
53714;SDS011;39608;55.630;37.864;2023-08-21T02:39:28;2.90;;;2.63;;
53714;SDS011;39608;55.630;37.864;2023-08-21T02:44:30;2.45;;;2.08;;
53714;SDS011;39608;55.630;37.864;2023-08-21T02:49:32;4.78;;;2.35;;
53714;SDS011;39608;55.630;37.864;2023-08-21T02:54:39;5.35;;;2.00;;
53714;SDS011;39608;55.630;37.864;2023-08-21T02:59:41;2.45;;;1.85;;
53714;SDS011;39608;55.630;37.864;2023-08-21T03:04:43;3.33;;;2.20;;
53714;SDS011;39608;55.630;37.864;2023-08-21T03:09:54;2.22;;;1.90;;
53714;SDS011;39608;55.630;37.864;2023-08-21T03:14:56;5.63;;;1.90;;
53714;SDS011;39608;55.630;37.864;2023-08-21T03:19:58;2.03;;;1.83;;
53714;SDS011;39608;55.630;37.864;2023-08-21T03:25:01;2.42;;;1.95;;
53714;SDS011;39608;55.630;37.864;2023-08-21T03:30:06;2.20;;;2.00;;
53714;SDS011;39608;55.630;37.864;2023-08-21T03:35:08;5.13;;;1.88;;
53714;SDS011;39608;55.630;37.864;2023-08-21T03:40:12;5.40;;;1.80;;
53714;SDS011;39608;55.630;37.864;2023-08-21T03:45:14;1.92;;;1.65;;
53714;SDS011;39608;55.630;37.864;2023-08-21T03:50:16;2.47;;;1.60;;
53714;SDS011;39608;55.630;37.864;2023-08-21T03:55:19;3.08;;;1.77;;
53714;SDS011;39608;55.630;37.864;2023-08-21T04:00:22;3.38;;;2.20;;
53714;SDS011;39608;55.630;37.864;2023-08-21T04:05:24;3.42;;;1.65;;
53714;SDS011;39608;55.630;37.864;2023-08-21T04:10:28;3.75;;;2.17;;
53714;SDS011;39608;55.630;37.864;2023-08-21T04:15:30;3.15;;;1.85;;
53714;SDS011;39608;55.630;37.864;2023-08-21T04:20:33;2.63;;;1.95;;
53714;SDS011;39608;55.630;37.864;2023-08-21T04:25:36;3.58;;;2.08;;
53714;SDS011;39608;55.630;37.864;2023-08-21T04:30:39;3.75;;;1.73;;
53714;SDS011;39608;55.630;37.864;2023-08-21T04:35:44;4.05;;;1.90;;
53714;SDS011;39608;55.630;37.864;2023-08-21T04:40:47;2.88;;;1.60;;
53714;SDS011;39608;55.630;37.864;2023-08-21T04:45:50;6.18;;;1.85;;
53714;SDS011;39608;55.630;37.864;2023-08-21T04:50:53;2.85;;;1.80;;
53714;SDS011;39608;55.630;37.864;2023-08-21T04:55:57;6.45;;;1.80;;
53714;SDS011;39608;55.630;37.864;2023-08-21T05:01:00;2.88;;;1.95;;
53714;SDS011;39608;55.630;37.864;2023-08-21T05:06:02;2.13;;;1.50;;
53714;SDS011;39608;55.630;37.864;2023-08-21T05:11:05;2.60;;;2.00;;
53714;SDS011;39608;55.630;37.864;2023-08-21T05:16:08;5.10;;;1.83;;
53714;SDS011;39608;55.630;37.864;2023-08-21T05:21:10;2.65;;;2.10;;
53714;SDS011;39608;55.630;37.864;2023-08-21T05:26:13;2.35;;;2.15;;
53714;SDS011;39608;55.630;37.864;2023-08-21T05:31:15;4.93;;;2.13;;
53714;SDS011;39608;55.630;37.864;2023-08-21T05:36:18;3.47;;;1.92;;
53714;SDS011;39608;55.630;37.864;2023-08-21T05:41:21;5.85;;;2.65;;
53714;SDS011;39608;55.630;37.864;2023-08-21T05:46:23;4.70;;;1.70;;
53714;SDS011;39608;55.630;37.864;2023-08-21T05:51:25;3.35;;;1.60;;
53714;SDS011;39608;55.630;37.864;2023-08-21T05:56:29;3.35;;;1.50;;
53714;SDS011;39608;55.630;37.864;2023-08-21T06:01:31;2.50;;;1.55;;
53714;SDS011;39608;55.630;37.864;2023-08-21T06:06:33;4.53;;;1.45;;
53714;SDS011;39608;55.630;37.864;2023-08-21T06:11:37;2.13;;;1.40;;
53714;SDS011;39608;55.630;37.864;2023-08-21T06:16:39;2.97;;;1.52;;
53714;SDS011;39608;55.630;37.864;2023-08-21T06:21:41;6.28;;;1.35;;
53714;SDS011;39608;55.630;37.864;2023-08-21T06:26:44;4.25;;;1.35;;
53714;SDS011;39608;55.630;37.864;2023-08-21T06:31:48;1.70;;;1.40;;
53714;SDS011;39608;55.630;37.864;2023-08-21T06:36:50;5.57;;;1.30;;
53714;SDS011;39608;55.630;37.864;2023-08-21T06:41:54;2.67;;;1.30;;
53714;SDS011;39608;55.630;37.864;2023-08-21T06:46:56;1.50;;;1.20;;
53714;SDS011;39608;55.630;37.864;2023-08-21T06:51:58;5.68;;;1.40;;
53714;SDS011;39608;55.630;37.864;2023-08-21T06:57:02;2.17;;;1.20;;
53714;SDS011;39608;55.630;37.864;2023-08-21T07:02:04;2.22;;;1.30;;
53714;SDS011;39608;55.630;37.864;2023-08-21T07:07:07;4.18;;;1.30;;
53714;SDS011;39608;55.630;37.864;2023-08-21T07:12:11;3.00;;;1.55;;
53714;SDS011;39608;55.630;37.864;2023-08-21T07:17:14;1.65;;;1.38;;
53714;SDS011;39608;55.630;37.864;2023-08-21T07:22:16;3.65;;;1.58;;
53714;SDS011;39608;55.630;37.864;2023-08-21T07:27:19;4.18;;;1.50;;
53714;SDS011;39608;55.630;37.864;2023-08-21T07:32:22;2.95;;;1.27;;
53714;SDS011;39608;55.630;37.864;2023-08-21T07:37:25;6.95;;;1.77;;
53714;SDS011;39608;55.630;37.864;2023-08-21T07:42:28;7.07;;;1.73;;
53714;SDS011;39608;55.630;37.864;2023-08-21T07:47:30;3.08;;;1.25;;
53714;SDS011;39608;55.630;37.864;2023-08-21T07:52:37;3.65;;;1.50;;
53714;SDS011;39608;55.630;37.864;2023-08-21T07:57:40;4.10;;;1.10;;
53714;SDS011;39608;55.630;37.864;2023-08-21T08:02:42;4.13;;;1.40;;
53714;SDS011;39608;55.630;37.864;2023-08-21T08:07:45;3.03;;;1.00;;
53714;SDS011;39608;55.630;37.864;2023-08-21T08:12:48;13.85;;;1.40;;
53714;SDS011;39608;55.630;37.864;2023-08-21T08:17:50;7.18;;;1.23;;
53714;SDS011;39608;55.630;37.864;2023-08-21T08:22:53;4.40;;;1.50;;
53714;SDS011;39608;55.630;37.864;2023-08-21T08:27:56;4.53;;;1.20;;
53714;SDS011;39608;55.630;37.864;2023-08-21T08:33:00;2.35;;;1.23;;
53714;SDS011;39608;55.630;37.864;2023-08-21T08:38:05;1.75;;;1.13;;
53714;SDS011;39608;55.630;37.864;2023-08-21T08:43:08;4.18;;;1.20;;
53714;SDS011;39608;55.630;37.864;2023-08-21T08:48:11;4.70;;;1.20;;
53714;SDS011;39608;55.630;37.864;2023-08-21T08:53:16;4.50;;;1.30;;
53714;SDS011;39608;55.630;37.864;2023-08-21T08:58:21;1.75;;;1.00;;
53714;SDS011;39608;55.630;37.864;2023-08-21T09:03:24;6.13;;;1.13;;
53714;SDS011;39608;55.630;37.864;2023-08-21T09:08:26;1.25;;;1.15;;
53714;SDS011;39608;55.630;37.864;2023-08-21T09:13:32;2.70;;;1.45;;
53714;SDS011;39608;55.630;37.864;2023-08-21T09:18:34;2.60;;;1.10;;
53714;SDS011;39608;55.630;37.864;2023-08-21T09:23:36;1.20;;;1.10;;
53714;SDS011;39608;55.630;37.864;2023-08-21T09:28:43;1.17;;;1.08;;
53714;SDS011;39608;55.630;37.864;2023-08-21T09:33:49;4.75;;;1.10;;
53714;SDS011;39608;55.630;37.864;2023-08-21T09:38:57;1.38;;;1.17;;
53714;SDS011;39608;55.630;37.864;2023-08-21T09:44:01;5.90;;;1.10;;
53714;SDS011;39608;55.630;37.864;2023-08-21T09:49:07;1.67;;;1.13;;
53714;SDS011;39608;55.630;37.864;2023-08-21T09:54:09;4.88;;;0.98;;
53714;SDS011;39608;55.630;37.864;2023-08-21T09:59:13;0.90;;;0.90;;
53714;SDS011;39608;55.630;37.864;2023-08-21T10:04:18;2.88;;;1.00;;
53714;SDS011;39608;55.630;37.864;2023-08-21T10:09:24;2.00;;;1.13;;
53714;SDS011;39608;55.630;37.864;2023-08-21T10:14:28;1.30;;;0.80;;
53714;SDS011;39608;55.630;37.864;2023-08-21T10:19:30;1.75;;;0.98;;
53714;SDS011;39608;55.630;37.864;2023-08-21T10:24:35;1.25;;;1.02;;
53714;SDS011;39608;55.630;37.864;2023-08-21T10:29:40;1.02;;;0.95;;
53714;SDS011;39608;55.630;37.864;2023-08-21T10:34:42;1.90;;;0.93;;
53714;SDS011;39608;55.630;37.864;2023-08-21T10:39:54;3.78;;;0.90;;
53714;SDS011;39608;55.630;37.864;2023-08-21T10:45:02;3.03;;;1.10;;
53714;SDS011;39608;55.630;37.864;2023-08-21T10:50:12;0.88;;;0.88;;
53714;SDS011;39608;55.630;37.864;2023-08-21T10:55:15;0.82;;;0.68;;
53714;SDS011;39608;55.630;37.864;2023-08-21T11:00:21;2.22;;;0.88;;
53714;SDS011;39608;55.630;37.864;2023-08-21T11:05:23;3.28;;;0.90;;
53714;SDS011;39608;55.630;37.864;2023-08-21T11:10:27;2.40;;;1.10;;
53714;SDS011;39608;55.630;37.864;2023-08-21T11:15:41;2.88;;;1.05;;
53714;SDS011;39608;55.630;37.864;2023-08-21T11:20:43;1.83;;;0.90;;
53714;SDS011;39608;55.630;37.864;2023-08-21T11:25:45;1.10;;;0.80;;
53714;SDS011;39608;55.630;37.864;2023-08-21T11:30:49;0.85;;;0.80;;
53714;SDS011;39608;55.630;37.864;2023-08-21T11:35:51;3.95;;;0.80;;
53714;SDS011;39608;55.630;37.864;2023-08-21T11:40:55;4.05;;;1.15;;
53714;SDS011;39608;55.630;37.864;2023-08-21T11:45:59;3.63;;;1.00;;
53714;SDS011;39608;55.630;37.864;2023-08-21T11:51:03;2.72;;;0.77;;
53714;SDS011;39608;55.630;37.864;2023-08-21T11:56:08;3.28;;;0.77;;
53714;SDS011;39608;55.630;37.864;2023-08-21T12:01:17;1.98;;;0.80;;
53714;SDS011;39608;55.630;37.864;2023-08-21T12:06:21;1.88;;;1.13;;
53714;SDS011;39608;55.630;37.864;2023-08-21T12:11:23;1.50;;;0.90;;
53714;SDS011;39608;55.630;37.864;2023-08-21T12:16:27;1.85;;;0.77;;
53714;SDS011;39608;55.630;37.864;2023-08-21T12:21:29;1.40;;;1.00;;
53714;SDS011;39608;55.630;37.864;2023-08-21T12:26:34;1.30;;;1.00;;
53714;SDS011;39608;55.630;37.864;2023-08-21T12:31:38;1.23;;;0.90;;
53714;SDS011;39608;55.630;37.864;2023-08-21T12:36:40;4.53;;;1.08;;
53714;SDS011;39608;55.630;37.864;2023-08-21T12:41:45;1.10;;;0.90;;
53714;SDS011;39608;55.630;37.864;2023-08-21T12:46:54;1.55;;;1.00;;
53714;SDS011;39608;55.630;37.864;2023-08-21T12:51:56;6.57;;;0.90;;
53714;SDS011;39608;55.630;37.864;2023-08-21T12:57:00;3.47;;;1.17;;
53714;SDS011;39608;55.630;37.864;2023-08-21T13:02:04;1.05;;;0.75;;
53714;SDS011;39608;55.630;37.864;2023-08-21T13:07:06;4.03;;;1.10;;
53714;SDS011;39608;55.630;37.864;2023-08-21T13:12:08;3.63;;;0.90;;
53714;SDS011;39608;55.630;37.864;2023-08-21T13:17:12;1.65;;;1.10;;
53714;SDS011;39608;55.630;37.864;2023-08-21T13:22:15;8.93;;;1.08;;
53714;SDS011;39608;55.630;37.864;2023-08-21T13:27:17;2.05;;;0.90;;
53714;SDS011;39608;55.630;37.864;2023-08-21T13:32:21;4.65;;;1.10;;
53714;SDS011;39608;55.630;37.864;2023-08-21T13:37:23;4.13;;;0.90;;
53714;SDS011;39608;55.630;37.864;2023-08-21T13:42:27;1.58;;;0.70;;
53714;SDS011;39608;55.630;37.864;2023-08-21T13:47:32;1.48;;;0.80;;
53714;SDS011;39608;55.630;37.864;2023-08-21T13:52:34;1.48;;;0.90;;
53714;SDS011;39608;55.630;37.864;2023-08-21T13:57:36;1.95;;;1.70;;
53714;SDS011;39608;55.630;37.864;2023-08-21T14:02:40;0.90;;;0.90;;
53714;SDS011;39608;55.630;37.864;2023-08-21T14:12:45;3.05;;;0.88;;
53714;SDS011;39608;55.630;37.864;2023-08-21T14:17:49;3.45;;;1.10;;
53714;SDS011;39608;55.630;37.864;2023-08-21T14:22:51;3.20;;;1.10;;
53714;SDS011;39608;55.630;37.864;2023-08-21T14:27:53;4.63;;;1.00;;
53714;SDS011;39608;55.630;37.864;2023-08-21T14:32:57;3.03;;;1.08;;
53714;SDS011;39608;55.630;37.864;2023-08-21T14:37:59;0.98;;;0.77;;
53714;SDS011;39608;55.630;37.864;2023-08-21T14:43:01;2.67;;;1.05;;
53714;SDS011;39608;55.630;37.864;2023-08-21T14:48:05;4.30;;;0.88;;
53714;SDS011;39608;55.630;37.864;2023-08-21T14:53:07;1.93;;;1.30;;
53714;SDS011;39608;55.630;37.864;2023-08-21T14:58:10;2.25;;;1.10;;
53714;SDS011;39608;55.630;37.864;2023-08-21T15:03:13;3.05;;;1.65;;
53714;SDS011;39608;55.630;37.864;2023-08-21T15:08:16;4.13;;;1.52;;
53714;SDS011;39608;55.630;37.864;2023-08-21T15:13:19;3.95;;;3.03;;
53714;SDS011;39608;55.630;37.864;2023-08-21T15:18:22;4.78;;;1.27;;
53714;SDS011;39608;55.630;37.864;2023-08-21T15:23:25;1.90;;;1.30;;
53714;SDS011;39608;55.630;37.864;2023-08-21T15:28:27;2.20;;;1.15;;
53714;SDS011;39608;55.630;37.864;2023-08-21T15:33:30;1.20;;;1.10;;
53714;SDS011;39608;55.630;37.864;2023-08-21T15:38:33;1.38;;;1.20;;
53714;SDS011;39608;55.630;37.864;2023-08-21T15:43:37;2.38;;;1.15;;
53714;SDS011;39608;55.630;37.864;2023-08-21T15:48:44;2.35;;;1.60;;
53714;SDS011;39608;55.630;37.864;2023-08-21T15:53:46;4.13;;;2.08;;
53714;SDS011;39608;55.630;37.864;2023-08-21T15:58:48;5.85;;;2.15;;
53714;SDS011;39608;55.630;37.864;2023-08-21T16:03:53;5.07;;;1.88;;
53714;SDS011;39608;55.630;37.864;2023-08-21T16:08:55;7.90;;;1.73;;
53714;SDS011;39608;55.630;37.864;2023-08-21T16:13:57;3.10;;;1.73;;
53714;SDS011;39608;55.630;37.864;2023-08-21T16:19:11;3.72;;;1.67;;
53714;SDS011;39608;55.630;37.864;2023-08-21T16:24:13;6.60;;;3.10;;
53714;SDS011;39608;55.630;37.864;2023-08-21T16:29:15;3.08;;;2.20;;
53714;SDS011;39608;55.630;37.864;2023-08-21T16:34:20;3.80;;;1.98;;
53714;SDS011;39608;55.630;37.864;2023-08-21T16:39:22;6.25;;;1.85;;
53714;SDS011;39608;55.630;37.864;2023-08-21T16:44:24;8.43;;;2.13;;
53714;SDS011;39608;55.630;37.864;2023-08-21T16:49:28;2.65;;;1.80;;
53714;SDS011;39608;55.630;37.864;2023-08-21T16:54:30;1.95;;;1.75;;
53714;SDS011;39608;55.630;37.864;2023-08-21T16:59:33;9.13;;;2.13;;
53714;SDS011;39608;55.630;37.864;2023-08-21T17:04:36;2.88;;;1.60;;
53714;SDS011;39608;55.630;37.864;2023-08-21T17:09:39;2.65;;;1.50;;
53714;SDS011;39608;55.630;37.864;2023-08-21T17:14:41;2.47;;;1.60;;
53714;SDS011;39608;55.630;37.864;2023-08-21T17:19:44;3.03;;;2.13;;
53714;SDS011;39608;55.630;37.864;2023-08-21T17:24:47;2.97;;;2.10;;
53714;SDS011;39608;55.630;37.864;2023-08-21T17:29:49;6.10;;;2.10;;
53714;SDS011;39608;55.630;37.864;2023-08-21T17:34:53;2.33;;;1.90;;
53714;SDS011;39608;55.630;37.864;2023-08-21T17:39:55;4.68;;;1.73;;
53714;SDS011;39608;55.630;37.864;2023-08-21T17:45:01;6.55;;;2.10;;
53714;SDS011;39608;55.630;37.864;2023-08-21T17:50:07;4.10;;;2.05;;
53714;SDS011;39608;55.630;37.864;2023-08-21T17:55:09;6.75;;;2.85;;
53714;SDS011;39608;55.630;37.864;2023-08-21T18:00:17;7.72;;;2.78;;
53714;SDS011;39608;55.630;37.864;2023-08-21T18:05:20;3.45;;;2.40;;
53714;SDS011;39608;55.630;37.864;2023-08-21T18:10:23;11.48;;;2.60;;
53714;SDS011;39608;55.630;37.864;2023-08-21T18:20:46;4.82;;;2.47;;
53714;SDS011;39608;55.630;37.864;2023-08-21T18:25:52;11.30;;;2.70;;
53714;SDS011;39608;55.630;37.864;2023-08-21T18:31:02;5.82;;;2.55;;
53714;SDS011;39608;55.630;37.864;2023-08-21T18:36:06;7.53;;;3.20;;
53714;SDS011;39608;55.630;37.864;2023-08-21T18:41:08;7.20;;;2.53;;
53714;SDS011;39608;55.630;37.864;2023-08-21T18:46:11;7.13;;;2.53;;
53714;SDS011;39608;55.630;37.864;2023-08-21T18:51:15;6.20;;;2.33;;
53714;SDS011;39608;55.630;37.864;2023-08-21T18:56:18;5.03;;;2.47;;
53714;SDS011;39608;55.630;37.864;2023-08-21T19:01:20;5.47;;;2.58;;
53714;SDS011;39608;55.630;37.864;2023-08-21T19:06:23;6.65;;;2.60;;
53714;SDS011;39608;55.630;37.864;2023-08-21T19:11:25;3.97;;;2.42;;
53714;SDS011;39608;55.630;37.864;2023-08-21T19:16:28;9.25;;;2.78;;
53714;SDS011;39608;55.630;37.864;2023-08-21T19:21:32;12.35;;;3.13;;
53714;SDS011;39608;55.630;37.864;2023-08-21T19:26:37;5.82;;;2.80;;
53714;SDS011;39608;55.630;37.864;2023-08-21T19:31:39;8.45;;;2.92;;
53714;SDS011;39608;55.630;37.864;2023-08-21T19:36:42;4.25;;;2.65;;
53714;SDS011;39608;55.630;37.864;2023-08-21T19:41:44;12.30;;;2.72;;
53714;SDS011;39608;55.630;37.864;2023-08-21T19:46:46;4.90;;;2.72;;
53714;SDS011;39608;55.630;37.864;2023-08-21T19:51:50;7.15;;;2.47;;
53714;SDS011;39608;55.630;37.864;2023-08-21T19:56:52;12.77;;;2.80;;
53714;SDS011;39608;55.630;37.864;2023-08-21T20:01:55;5.47;;;2.80;;
53714;SDS011;39608;55.630;37.864;2023-08-21T20:06:59;5.55;;;2.42;;
53714;SDS011;39608;55.630;37.864;2023-08-21T20:12:01;8.50;;;2.88;;
53714;SDS011;39608;55.630;37.864;2023-08-21T20:17:04;7.68;;;2.75;;
53714;SDS011;39608;55.630;37.864;2023-08-21T20:22:10;5.03;;;2.75;;
53714;SDS011;39608;55.630;37.864;2023-08-21T20:27:12;13.10;;;2.83;;
53714;SDS011;39608;55.630;37.864;2023-08-21T20:32:14;8.63;;;3.00;;
53714;SDS011;39608;55.630;37.864;2023-08-21T20:37:18;7.22;;;3.08;;
53714;SDS011;39608;55.630;37.864;2023-08-21T20:42:21;6.53;;;3.08;;
53714;SDS011;39608;55.630;37.864;2023-08-21T20:47:23;7.45;;;3.47;;
53714;SDS011;39608;55.630;37.864;2023-08-21T20:52:27;6.22;;;2.85;;
53714;SDS011;39608;55.630;37.864;2023-08-21T20:57:29;11.27;;;2.80;;
53714;SDS011;39608;55.630;37.864;2023-08-21T21:02:31;9.77;;;3.17;;
53714;SDS011;39608;55.630;37.864;2023-08-21T21:07:34;4.95;;;2.95;;
53714;SDS011;39608;55.630;37.864;2023-08-21T21:12:37;5.85;;;3.45;;
53714;SDS011;39608;55.630;37.864;2023-08-21T21:17:39;10.45;;;3.30;;
53714;SDS011;39608;55.630;37.864;2023-08-21T21:22:42;8.25;;;3.15;;
53714;SDS011;39608;55.630;37.864;2023-08-21T21:27:45;8.95;;;3.50;;
53714;SDS011;39608;55.630;37.864;2023-08-21T21:32:47;7.18;;;3.95;;
53714;SDS011;39608;55.630;37.864;2023-08-21T21:37:50;7.25;;;4.38;;
53714;SDS011;39608;55.630;37.864;2023-08-21T21:42:52;5.97;;;3.50;;
53714;SDS011;39608;55.630;37.864;2023-08-21T21:47:55;10.38;;;3.42;;
53714;SDS011;39608;55.630;37.864;2023-08-21T21:52:59;8.05;;;3.22;;
53714;SDS011;39608;55.630;37.864;2023-08-21T21:58:01;10.43;;;3.05;;
53714;SDS011;39608;55.630;37.864;2023-08-21T22:03:03;5.55;;;2.90;;
53714;SDS011;39608;55.630;37.864;2023-08-21T22:08:07;7.75;;;2.70;;
53714;SDS011;39608;55.630;37.864;2023-08-21T22:13:09;4.68;;;2.47;;
53714;SDS011;39608;55.630;37.864;2023-08-21T22:18:13;16.95;;;3.35;;
53714;SDS011;39608;55.630;37.864;2023-08-21T22:23:17;7.95;;;2.38;;
53714;SDS011;39608;55.630;37.864;2023-08-21T22:28:19;5.30;;;2.47;;
53714;SDS011;39608;55.630;37.864;2023-08-21T22:33:21;7.63;;;2.58;;
53714;SDS011;39608;55.630;37.864;2023-08-21T22:38:26;5.07;;;2.25;;
53714;SDS011;39608;55.630;37.864;2023-08-21T22:43:28;4.88;;;2.33;;
53714;SDS011;39608;55.630;37.864;2023-08-21T22:48:30;9.95;;;2.40;;
53714;SDS011;39608;55.630;37.864;2023-08-21T22:53:36;8.95;;;3.22;;
53714;SDS011;39608;55.630;37.864;2023-08-21T22:58:38;10.50;;;2.50;;
53714;SDS011;39608;55.630;37.864;2023-08-21T23:03:40;7.88;;;3.00;;
53714;SDS011;39608;55.630;37.864;2023-08-21T23:08:43;14.38;;;2.92;;
53714;SDS011;39608;55.630;37.864;2023-08-21T23:13:45;7.80;;;2.60;;
53714;SDS011;39608;55.630;37.864;2023-08-21T23:18:49;7.95;;;2.60;;
53714;SDS011;39608;55.630;37.864;2023-08-21T23:23:52;12.38;;;3.28;;
53714;SDS011;39608;55.630;37.864;2023-08-21T23:28:55;6.18;;;2.65;;
53714;SDS011;39608;55.630;37.864;2023-08-21T23:34:03;12.70;;;3.03;;
53714;SDS011;39608;55.630;37.864;2023-08-21T23:39:07;8.07;;;3.05;;
53714;SDS011;39608;55.630;37.864;2023-08-21T23:44:09;5.63;;;3.25;;
53714;SDS011;39608;55.630;37.864;2023-08-21T23:49:11;5.75;;;2.88;;
53714;SDS011;39608;55.630;37.864;2023-08-21T23:54:14;3.38;;;2.22;;
53714;SDS011;39608;55.630;37.864;2023-08-21T23:59:17;4.88;;;2.60;;
